sensor_id;sensor_type;location;lat;lon;timestamp;temperature;humidity
15099;DHT22;33900;53.640;9.942;2022-09-17T00:01:09;15.50;93.70
15099;DHT22;33900;53.640;9.942;2022-09-17T00:03:35;15.50;93.70
15099;DHT22;33900;53.640;9.942;2022-09-17T00:06:01;15.50;93.70
15099;DHT22;33900;53.640;9.942;2022-09-17T00:08:27;15.50;93.70
15099;DHT22;33900;53.640;9.942;2022-09-17T00:10:53;15.50;93.70
15099;DHT22;33900;53.640;9.942;2022-09-17T00:13:19;15.50;93.70
15099;DHT22;33900;53.640;9.942;2022-09-17T00:15:45;15.50;93.60
15099;DHT22;33900;53.640;9.942;2022-09-17T00:18:11;15.50;93.60
15099;DHT22;33900;53.640;9.942;2022-09-17T00:20:41;15.50;93.60
15099;DHT22;33900;53.640;9.942;2022-09-17T00:23:07;15.50;93.60
15099;DHT22;33900;53.640;9.942;2022-09-17T00:25:33;15.40;93.60
15099;DHT22;33900;53.640;9.942;2022-09-17T00:27:59;15.40;93.50
15099;DHT22;33900;53.640;9.942;2022-09-17T00:30:24;15.40;93.50
15099;DHT22;33900;53.640;9.942;2022-09-17T00:32:50;15.40;93.50
15099;DHT22;33900;53.640;9.942;2022-09-17T00:35:17;15.40;93.60
15099;DHT22;33900;53.640;9.942;2022-09-17T00:37:43;15.40;93.60
15099;DHT22;33900;53.640;9.942;2022-09-17T00:40:09;15.60;93.70
15099;DHT22;33900;53.640;9.942;2022-09-17T00:42:35;15.40;93.60
15099;DHT22;33900;53.640;9.942;2022-09-17T00:48:29;15.40;93.50
15099;DHT22;33900;53.640;9.942;2022-09-17T00:50:55;15.40;93.30
15099;DHT22;33900;53.640;9.942;2022-09-17T00:53:23;15.40;93.30
15099;DHT22;33900;53.640;9.942;2022-09-17T00:55:51;15.40;93.30
15099;DHT22;33900;53.640;9.942;2022-09-17T00:58:19;15.30;93.30
15099;DHT22;33900;53.640;9.942;2022-09-17T01:00:47;15.30;93.30
15099;DHT22;33900;53.640;9.942;2022-09-17T01:03:12;15.30;93.20
15099;DHT22;33900;53.640;9.942;2022-09-17T01:05:48;15.30;93.20
15099;DHT22;33900;53.640;9.942;2022-09-17T01:08:24;15.30;93.10
15099;DHT22;33900;53.640;9.942;2022-09-17T01:13:36;15.20;93.10
15099;DHT22;33900;53.640;9.942;2022-09-17T01:16:14;15.20;93.10
15099;DHT22;33900;53.640;9.942;2022-09-17T01:18:46;15.20;93.20
15099;DHT22;33900;53.640;9.942;2022-09-17T01:26:39;15.20;93.20
15099;DHT22;33900;53.640;9.942;2022-09-17T01:31:57;15.20;93.20
15099;DHT22;33900;53.640;9.942;2022-09-17T01:36:57;15.20;93.10
15099;DHT22;33900;53.640;9.942;2022-09-17T01:41:52;15.20;93.10
15099;DHT22;33900;53.640;9.942;2022-09-17T01:44:29;15.20;93.10
15099;DHT22;33900;53.640;9.942;2022-09-17T01:47:03;15.20;93.10
15099;DHT22;33900;53.640;9.942;2022-09-17T01:49:31;15.20;93.10
15099;DHT22;33900;53.640;9.942;2022-09-17T01:51:57;15.20;93.10
15099;DHT22;33900;53.640;9.942;2022-09-17T01:54:30;15.20;93.10
15099;DHT22;33900;53.640;9.942;2022-09-17T01:59:28;15.20;93.10
15099;DHT22;33900;53.640;9.942;2022-09-17T02:01:56;15.20;93.10
15099;DHT22;33900;53.640;9.942;2022-09-17T02:04:23;15.20;93.10
15099;DHT22;33900;53.640;9.942;2022-09-17T02:06:51;15.20;93.00
15099;DHT22;33900;53.640;9.942;2022-09-17T02:09:21;15.20;93.40
15099;DHT22;33900;53.640;9.942;2022-09-17T02:11:51;15.20;93.00
15099;DHT22;33900;53.640;9.942;2022-09-17T02:14:20;15.20;93.00
15099;DHT22;33900;53.640;9.942;2022-09-17T02:20:17;15.20;93.00
15099;DHT22;33900;53.640;9.942;2022-09-17T02:22:49;15.20;93.00
15099;DHT22;33900;53.640;9.942;2022-09-17T02:25:19;15.20;93.00
15099;DHT22;33900;53.640;9.942;2022-09-17T02:28:01;15.20;93.00
15099;DHT22;33900;53.640;9.942;2022-09-17T02:30:27;15.20;93.00
15099;DHT22;33900;53.640;9.942;2022-09-17T02:32:53;15.20;92.90
15099;DHT22;33900;53.640;9.942;2022-09-17T02:35:19;15.20;92.90
15099;DHT22;33900;53.640;9.942;2022-09-17T02:37:44;15.10;92.90
15099;DHT22;33900;53.640;9.942;2022-09-17T02:40:11;15.10;92.80
15099;DHT22;33900;53.640;9.942;2022-09-17T02:42:55;15.10;92.80
15099;DHT22;33900;53.640;9.942;2022-09-17T02:45:34;15.10;92.90
15099;DHT22;33900;53.640;9.942;2022-09-17T02:55:48;15.10;93.00
15099;DHT22;33900;53.640;9.942;2022-09-17T03:00:41;15.10;93.00
15099;DHT22;33900;53.640;9.942;2022-09-17T03:03:08;15.10;93.10
15099;DHT22;33900;53.640;9.942;2022-09-17T03:05:35;15.10;93.00
15099;DHT22;33900;53.640;9.942;2022-09-17T03:08:02;15.10;93.00
15099;DHT22;33900;53.640;9.942;2022-09-17T03:10:27;15.10;93.00
15099;DHT22;33900;53.640;9.942;2022-09-17T03:12:54;15.00;93.00
15099;DHT22;33900;53.640;9.942;2022-09-17T03:15:20;15.00;93.00
15099;DHT22;33900;53.640;9.942;2022-09-17T03:17:45;15.10;93.10
15099;DHT22;33900;53.640;9.942;2022-09-17T03:20:11;15.00;93.10
15099;DHT22;33900;53.640;9.942;2022-09-17T03:22:37;15.00;93.00
15099;DHT22;33900;53.640;9.942;2022-09-17T03:25:02;15.00;93.00
15099;DHT22;33900;53.640;9.942;2022-09-17T03:27:28;15.00;93.00
15099;DHT22;33900;53.640;9.942;2022-09-17T03:29:53;15.00;93.00
15099;DHT22;33900;53.640;9.942;2022-09-17T03:32:19;15.00;93.40
15099;DHT22;33900;53.640;9.942;2022-09-17T03:34:45;15.00;93.00
15099;DHT22;33900;53.640;9.942;2022-09-17T03:37:11;15.00;93.00
15099;DHT22;33900;53.640;9.942;2022-09-17T03:39:37;15.00;93.00
15099;DHT22;33900;53.640;9.942;2022-09-17T03:42:02;15.00;93.00
15099;DHT22;33900;53.640;9.942;2022-09-17T03:44:28;15.00;93.10
15099;DHT22;33900;53.640;9.942;2022-09-17T03:46:54;15.00;93.00
15099;DHT22;33900;53.640;9.942;2022-09-17T03:49:19;15.00;93.10
15099;DHT22;33900;53.640;9.942;2022-09-17T03:51:45;15.00;93.10
15099;DHT22;33900;53.640;9.942;2022-09-17T03:54:10;15.00;93.10
15099;DHT22;33900;53.640;9.942;2022-09-17T03:56:36;15.00;93.10
15099;DHT22;33900;53.640;9.942;2022-09-17T03:59:02;15.00;93.10
15099;DHT22;33900;53.640;9.942;2022-09-17T04:01:28;15.00;93.10
15099;DHT22;33900;53.640;9.942;2022-09-17T04:03:53;15.00;93.10
15099;DHT22;33900;53.640;9.942;2022-09-17T04:06:19;15.00;93.10
15099;DHT22;33900;53.640;9.942;2022-09-17T04:08:45;15.00;93.10
15099;DHT22;33900;53.640;9.942;2022-09-17T04:11:11;15.00;93.10
15099;DHT22;33900;53.640;9.942;2022-09-17T04:13:37;15.00;93.10
15099;DHT22;33900;53.640;9.942;2022-09-17T04:16:03;15.00;93.00
15099;DHT22;33900;53.640;9.942;2022-09-17T04:18:28;14.90;92.90
15099;DHT22;33900;53.640;9.942;2022-09-17T04:20:54;14.90;92.90
15099;DHT22;33900;53.640;9.942;2022-09-17T04:23:20;14.90;93.00
15099;DHT22;33900;53.640;9.942;2022-09-17T04:25:45;14.90;93.00
15099;DHT22;33900;53.640;9.942;2022-09-17T04:28:11;14.80;93.00
15099;DHT22;33900;53.640;9.942;2022-09-17T04:30:37;14.80;93.00
15099;DHT22;33900;53.640;9.942;2022-09-17T04:33:02;14.80;93.00
15099;DHT22;33900;53.640;9.942;2022-09-17T04:35:28;14.80;93.10
15099;DHT22;33900;53.640;9.942;2022-09-17T04:37:54;14.70;93.10
15099;DHT22;33900;53.640;9.942;2022-09-17T04:40:21;14.70;93.10
15099;DHT22;33900;53.640;9.942;2022-09-17T04:42:47;14.70;93.20
15099;DHT22;33900;53.640;9.942;2022-09-17T04:45:12;14.70;93.20
15099;DHT22;33900;53.640;9.942;2022-09-17T04:47:38;14.70;93.30
15099;DHT22;33900;53.640;9.942;2022-09-17T04:50:05;14.70;93.30
15099;DHT22;33900;53.640;9.942;2022-09-17T04:52:31;14.70;93.40
15099;DHT22;33900;53.640;9.942;2022-09-17T04:54:57;14.80;93.40
15099;DHT22;33900;53.640;9.942;2022-09-17T04:57:23;14.80;93.50
15099;DHT22;33900;53.640;9.942;2022-09-17T04:59:50;14.80;93.50
15099;DHT22;33900;53.640;9.942;2022-09-17T05:02:15;14.80;93.50
15099;DHT22;33900;53.640;9.942;2022-09-17T05:04:41;14.80;93.50
15099;DHT22;33900;53.640;9.942;2022-09-17T05:07:07;14.80;93.50
15099;DHT22;33900;53.640;9.942;2022-09-17T05:09:32;14.70;93.40
15099;DHT22;33900;53.640;9.942;2022-09-17T05:11:58;14.70;93.40
15099;DHT22;33900;53.640;9.942;2022-09-17T05:14:24;14.70;93.40
15099;DHT22;33900;53.640;9.942;2022-09-17T05:16:49;14.70;93.40
15099;DHT22;33900;53.640;9.942;2022-09-17T05:19:15;14.70;93.40
15099;DHT22;33900;53.640;9.942;2022-09-17T05:21:40;14.70;93.40
15099;DHT22;33900;53.640;9.942;2022-09-17T05:24:06;14.70;93.40
15099;DHT22;33900;53.640;9.942;2022-09-17T05:26:32;14.70;93.40
15099;DHT22;33900;53.640;9.942;2022-09-17T07:14:28;13.00;95.50
15099;DHT22;33900;53.640;9.942;2022-09-17T07:16:53;13.10;96.30
15099;DHT22;33900;53.640;9.942;2022-09-17T07:19:19;13.30;96.60
15099;DHT22;33900;53.640;9.942;2022-09-17T07:21:46;13.50;96.50
15099;DHT22;33900;53.640;9.942;2022-09-17T07:24:12;13.60;96.40
15099;DHT22;33900;53.640;9.942;2022-09-17T07:26:37;13.80;96.30
15099;DHT22;33900;53.640;9.942;2022-09-17T07:29:03;14.00;96.10
15099;DHT22;33900;53.640;9.942;2022-09-17T07:31:28;14.20;96.00
15099;DHT22;33900;53.640;9.942;2022-09-17T07:33:55;14.30;95.80
15099;DHT22;33900;53.640;9.942;2022-09-17T07:36:20;14.40;95.40
15099;DHT22;33900;53.640;9.942;2022-09-17T07:38:47;14.50;95.30
15099;DHT22;33900;53.640;9.942;2022-09-17T07:41:13;14.60;95.00
15099;DHT22;33900;53.640;9.942;2022-09-17T07:43:39;14.60;94.50
15099;DHT22;33900;53.640;9.942;2022-09-17T07:46:05;14.60;94.40
15099;DHT22;33900;53.640;9.942;2022-09-17T07:48:31;14.70;94.30
15099;DHT22;33900;53.640;9.942;2022-09-17T07:50:57;14.70;94.20
15099;DHT22;33900;53.640;9.942;2022-09-17T07:53:22;14.70;94.00
15099;DHT22;33900;53.640;9.942;2022-09-17T07:55:54;14.80;94.10
15099;DHT22;33900;53.640;9.942;2022-09-17T07:58:21;14.90;94.00
15099;DHT22;33900;53.640;9.942;2022-09-17T08:00:47;14.90;93.70
15099;DHT22;33900;53.640;9.942;2022-09-17T08:03:13;15.00;93.70
15099;DHT22;33900;53.640;9.942;2022-09-17T08:05:38;15.00;93.80
15099;DHT22;33900;53.640;9.942;2022-09-17T08:08:04;15.10;93.70
15099;DHT22;33900;53.640;9.942;2022-09-17T08:10:29;15.20;93.60
15099;DHT22;33900;53.640;9.942;2022-09-17T08:12:55;15.20;93.20
15099;DHT22;33900;53.640;9.942;2022-09-17T08:15:21;15.30;93.10
15099;DHT22;33900;53.640;9.942;2022-09-17T08:17:47;15.30;93.10
15099;DHT22;33900;53.640;9.942;2022-09-17T08:20:13;15.30;93.00
15099;DHT22;33900;53.640;9.942;2022-09-17T08:22:39;15.40;93.00
15099;DHT22;33900;53.640;9.942;2022-09-17T08:25:05;15.40;92.70
15099;DHT22;33900;53.640;9.942;2022-09-17T08:27:31;15.50;92.50
15099;DHT22;33900;53.640;9.942;2022-09-17T08:29:56;15.50;92.70
15099;DHT22;33900;53.640;9.942;2022-09-17T08:32:22;15.60;92.50
15099;DHT22;33900;53.640;9.942;2022-09-17T08:34:48;15.60;92.80
15099;DHT22;33900;53.640;9.942;2022-09-17T08:37:14;15.60;92.40
15099;DHT22;33900;53.640;9.942;2022-09-17T08:39:39;15.70;92.40
15099;DHT22;33900;53.640;9.942;2022-09-17T08:42:38;15.80;92.30
15099;DHT22;33900;53.640;9.942;2022-09-17T08:44:57;15.80;92.20
15099;DHT22;33900;53.640;9.942;2022-09-17T08:47:25;15.90;92.10
15099;DHT22;33900;53.640;9.942;2022-09-17T08:49:53;15.90;91.90
15099;DHT22;33900;53.640;9.942;2022-09-17T08:54:58;15.90;91.50
15099;DHT22;33900;53.640;9.942;2022-09-17T09:00:31;15.80;91.30
15099;DHT22;33900;53.640;9.942;2022-09-17T09:05:45;15.90;91.40
15099;DHT22;33900;53.640;9.942;2022-09-17T09:10:45;16.00;91.30
15099;DHT22;33900;53.640;9.942;2022-09-17T09:13:14;16.00;90.90
15099;DHT22;33900;53.640;9.942;2022-09-17T09:15:50;16.00;90.50
15099;DHT22;33900;53.640;9.942;2022-09-17T09:18:22;16.00;90.40
15099;DHT22;33900;53.640;9.942;2022-09-17T09:20:49;15.90;90.00
15099;DHT22;33900;53.640;9.942;2022-09-17T09:23:20;15.90;90.20
15099;DHT22;33900;53.640;9.942;2022-09-17T09:25:53;15.80;90.10
15099;DHT22;33900;53.640;9.942;2022-09-17T09:28:26;15.90;90.00
15099;DHT22;33900;53.640;9.942;2022-09-17T09:30:58;15.90;89.80
15099;DHT22;33900;53.640;9.942;2022-09-17T09:33:28;15.90;89.50
15099;DHT22;33900;53.640;9.942;2022-09-17T09:35:55;15.90;87.90
15099;DHT22;33900;53.640;9.942;2022-09-17T09:38:31;16.00;88.00
15099;DHT22;33900;53.640;9.942;2022-09-17T09:43:42;16.00;87.70
15099;DHT22;33900;53.640;9.942;2022-09-17T09:46:14;16.00;87.60
15099;DHT22;33900;53.640;9.942;2022-09-17T09:48:45;16.00;88.00
15099;DHT22;33900;53.640;9.942;2022-09-17T09:56:19;16.10;86.70
15099;DHT22;33900;53.640;9.942;2022-09-17T09:58:48;16.10;87.20
15099;DHT22;33900;53.640;9.942;2022-09-17T10:01:14;16.10;87.40
15099;DHT22;33900;53.640;9.942;2022-09-17T10:03:40;16.10;87.40
15099;DHT22;33900;53.640;9.942;2022-09-17T10:06:08;16.10;85.80
15099;DHT22;33900;53.640;9.942;2022-09-17T10:08:40;16.10;86.60
15099;DHT22;33900;53.640;9.942;2022-09-17T10:11:15;16.10;86.70
15099;DHT22;33900;53.640;9.942;2022-09-17T10:13:44;16.10;86.70
15099;DHT22;33900;53.640;9.942;2022-09-17T10:16:14;16.10;86.80
15099;DHT22;33900;53.640;9.942;2022-09-17T10:18:41;16.10;87.10
15099;DHT22;33900;53.640;9.942;2022-09-17T10:21:06;16.10;87.40
15099;DHT22;33900;53.640;9.942;2022-09-17T10:23:42;16.10;87.40
15099;DHT22;33900;53.640;9.942;2022-09-17T10:26:18;16.20;87.40
15099;DHT22;33900;53.640;9.942;2022-09-17T10:28:46;16.20;87.10
15099;DHT22;33900;53.640;9.942;2022-09-17T10:31:12;16.20;86.80
15099;DHT22;33900;53.640;9.942;2022-09-17T10:33:39;16.20;87.00
15099;DHT22;33900;53.640;9.942;2022-09-17T10:36:06;16.20;87.10
15099;DHT22;33900;53.640;9.942;2022-09-17T10:38:35;16.20;86.10
15099;DHT22;33900;53.640;9.942;2022-09-17T10:41:11;16.20;86.50
15099;DHT22;33900;53.640;9.942;2022-09-17T10:43:38;16.10;86.00
15099;DHT22;33900;53.640;9.942;2022-09-17T10:46:03;16.10;86.40
15099;DHT22;33900;53.640;9.942;2022-09-17T10:48:30;16.10;86.90
15099;DHT22;33900;53.640;9.942;2022-09-17T10:50:57;16.10;87.00
15099;DHT22;33900;53.640;9.942;2022-09-17T10:53:23;16.10;87.40
15099;DHT22;33900;53.640;9.942;2022-09-17T10:58:31;16.10;87.20
15099;DHT22;33900;53.640;9.942;2022-09-17T11:01:09;16.10;87.10
15099;DHT22;33900;53.640;9.942;2022-09-17T11:08:57;16.30;87.50
15099;DHT22;33900;53.640;9.942;2022-09-17T11:14:41;16.30;87.90
15099;DHT22;33900;53.640;9.942;2022-09-17T11:17:20;16.30;87.30
15099;DHT22;33900;53.640;9.942;2022-09-17T11:19:55;16.30;87.20
15099;DHT22;33900;53.640;9.942;2022-09-17T11:25:14;16.30;87.20
15099;DHT22;33900;53.640;9.942;2022-09-17T11:27:45;16.30;87.20
15099;DHT22;33900;53.640;9.942;2022-09-17T11:30:13;16.40;87.40
15099;DHT22;33900;53.640;9.942;2022-09-17T11:35:19;16.50;87.50
15099;DHT22;33900;53.640;9.942;2022-09-17T11:40:38;16.60;87.30
15099;DHT22;33900;53.640;9.942;2022-09-17T11:43:16;16.70;87.40
15099;DHT22;33900;53.640;9.942;2022-09-17T11:45:56;16.70;86.80
15099;DHT22;33900;53.640;9.942;2022-09-17T11:48:26;16.70;86.10
15099;DHT22;33900;53.640;9.942;2022-09-17T11:50:56;16.70;85.80
15099;DHT22;33900;53.640;9.942;2022-09-17T11:53:30;16.70;85.80
15099;DHT22;33900;53.640;9.942;2022-09-17T11:58:33;16.70;86.50
15099;DHT22;33900;53.640;9.942;2022-09-17T12:01:10;16.70;86.50
15099;DHT22;33900;53.640;9.942;2022-09-17T12:03:39;16.70;86.50
15099;DHT22;33900;53.640;9.942;2022-09-17T12:06:17;16.70;86.50
15099;DHT22;33900;53.640;9.942;2022-09-17T12:08:46;16.70;86.00
15099;DHT22;33900;53.640;9.942;2022-09-17T12:11:19;16.70;86.50
15099;DHT22;33900;53.640;9.942;2022-09-17T12:18:45;16.90;87.00
15099;DHT22;33900;53.640;9.942;2022-09-17T12:21:13;17.00;86.70
15099;DHT22;33900;53.640;9.942;2022-09-17T12:23:41;17.20;87.00
15099;DHT22;33900;53.640;9.942;2022-09-17T12:26:11;17.30;87.30
15099;DHT22;33900;53.640;9.942;2022-09-17T12:28:42;17.50;87.40
15099;DHT22;33900;53.640;9.942;2022-09-17T12:31:18;17.70;86.70
15099;DHT22;33900;53.640;9.942;2022-09-17T12:33:50;17.90;86.60
15099;DHT22;33900;53.640;9.942;2022-09-17T12:36:29;18.10;86.40
15099;DHT22;33900;53.640;9.942;2022-09-17T12:39:01;18.20;86.30
15099;DHT22;33900;53.640;9.942;2022-09-17T12:47:39;18.60;84.40
15099;DHT22;33900;53.640;9.942;2022-09-17T12:52:24;18.70;84.40
15099;DHT22;33900;53.640;9.942;2022-09-17T12:55:01;18.70;84.10
15099;DHT22;33900;53.640;9.942;2022-09-17T12:57:44;18.80;84.00
15099;DHT22;33900;53.640;9.942;2022-09-17T13:00:13;18.80;83.20
15099;DHT22;33900;53.640;9.942;2022-09-17T13:02:41;18.70;83.10
15099;DHT22;33900;53.640;9.942;2022-09-17T13:05:30;18.70;83.40
15099;DHT22;33900;53.640;9.942;2022-09-17T13:10:40;18.50;83.50
15099;DHT22;33900;53.640;9.942;2022-09-17T13:13:19;18.50;83.60
15099;DHT22;33900;53.640;9.942;2022-09-17T13:15:50;18.40;83.70
15099;DHT22;33900;53.640;9.942;2022-09-17T13:18:22;18.30;83.70
15099;DHT22;33900;53.640;9.942;2022-09-17T13:20:59;18.20;83.80
15099;DHT22;33900;53.640;9.942;2022-09-17T13:23:32;18.10;83.80
15099;DHT22;33900;53.640;9.942;2022-09-17T13:25:58;18.10;84.30
15099;DHT22;33900;53.640;9.942;2022-09-17T13:28:36;18.10;84.50
15099;DHT22;33900;53.640;9.942;2022-09-17T13:31:01;18.20;84.60
15099;DHT22;33900;53.640;9.942;2022-09-17T13:33:47;18.40;84.60
15099;DHT22;33900;53.640;9.942;2022-09-17T13:38:59;18.70;83.90
15099;DHT22;33900;53.640;9.942;2022-09-17T13:41:25;18.90;81.90
15099;DHT22;33900;53.640;9.942;2022-09-17T13:43:52;18.90;81.60
15099;DHT22;33900;53.640;9.942;2022-09-17T13:46:20;19.00;81.60
15099;DHT22;33900;53.640;9.942;2022-09-17T13:48:50;19.10;81.00
15099;DHT22;33900;53.640;9.942;2022-09-17T13:53:54;19.20;79.70
15099;DHT22;33900;53.640;9.942;2022-09-17T13:56:31;19.10;79.80
15099;DHT22;33900;53.640;9.942;2022-09-17T13:59:06;19.10;80.30
15099;DHT22;33900;53.640;9.942;2022-09-17T14:07:22;18.70;81.30
15099;DHT22;33900;53.640;9.942;2022-09-17T14:09:54;18.60;81.90
15099;DHT22;33900;53.640;9.942;2022-09-17T14:13:16;18.40;82.40
15099;DHT22;33900;53.640;9.942;2022-09-17T14:17:56;18.20;83.30
15099;DHT22;33900;53.640;9.942;2022-09-17T14:20:23;18.00;83.80
15099;DHT22;33900;53.640;9.942;2022-09-17T14:22:59;18.00;84.40
15099;DHT22;33900;53.640;9.942;2022-09-17T14:25:48;18.00;85.60
15099;DHT22;33900;53.640;9.942;2022-09-17T14:28:22;18.00;85.20
15099;DHT22;33900;53.640;9.942;2022-09-17T14:30:52;18.00;85.60
15099;DHT22;33900;53.640;9.942;2022-09-17T14:33:20;18.00;85.60
15099;DHT22;33900;53.640;9.942;2022-09-17T14:36:00;18.00;85.50
15099;DHT22;33900;53.640;9.942;2022-09-17T14:41:05;17.90;85.20
15099;DHT22;33900;53.640;9.942;2022-09-17T14:46:00;17.80;85.70
15099;DHT22;33900;53.640;9.942;2022-09-17T14:48:31;17.60;85.70
15099;DHT22;33900;53.640;9.942;2022-09-17T14:53:42;17.50;86.30
15099;DHT22;33900;53.640;9.942;2022-09-17T14:56:12;17.40;86.50
15099;DHT22;33900;53.640;9.942;2022-09-17T14:58:39;17.30;86.80
15099;DHT22;33900;53.640;9.942;2022-09-17T15:01:27;17.30;87.20
15099;DHT22;33900;53.640;9.942;2022-09-17T15:06:37;17.20;87.90
15099;DHT22;33900;53.640;9.942;2022-09-17T15:09:03;17.10;87.90
15099;DHT22;33900;53.640;9.942;2022-09-17T15:11:29;17.10;88.30
15099;DHT22;33900;53.640;9.942;2022-09-17T15:13:55;17.10;88.40
15099;DHT22;33900;53.640;9.942;2022-09-17T15:16:25;17.10;88.60
15099;DHT22;33900;53.640;9.942;2022-09-17T15:18:55;17.10;88.80
15099;DHT22;33900;53.640;9.942;2022-09-17T15:21:36;17.10;88.90
15099;DHT22;33900;53.640;9.942;2022-09-17T15:26:44;17.10;89.00
15099;DHT22;33900;53.640;9.942;2022-09-17T15:29:13;17.10;89.00
15099;DHT22;33900;53.640;9.942;2022-09-17T15:31:39;17.00;88.80
15099;DHT22;33900;53.640;9.942;2022-09-17T15:34:05;17.00;88.90
15099;DHT22;33900;53.640;9.942;2022-09-17T15:36:31;17.00;89.00
15099;DHT22;33900;53.640;9.942;2022-09-17T15:38:56;17.00;89.10
15099;DHT22;33900;53.640;9.942;2022-09-17T15:41:24;16.90;89.10
15099;DHT22;33900;53.640;9.942;2022-09-17T15:43:51;16.90;89.40
15099;DHT22;33900;53.640;9.942;2022-09-17T15:46:27;16.90;89.40
15099;DHT22;33900;53.640;9.942;2022-09-17T15:48:57;16.90;89.50
15099;DHT22;33900;53.640;9.942;2022-09-17T15:51:26;16.90;89.50
15099;DHT22;33900;53.640;9.942;2022-09-17T15:53:53;16.90;89.40
15099;DHT22;33900;53.640;9.942;2022-09-17T15:56:21;16.90;89.50
15099;DHT22;33900;53.640;9.942;2022-09-17T16:08:43;16.90;89.90
15099;DHT22;33900;53.640;9.942;2022-09-17T16:11:08;16.80;89.80
15099;DHT22;33900;53.640;9.942;2022-09-17T16:13:34;16.80;89.80
15099;DHT22;33900;53.640;9.942;2022-09-17T16:15:59;16.80;89.90
15099;DHT22;33900;53.640;9.942;2022-09-17T16:18:25;16.80;89.90
15099;DHT22;33900;53.640;9.942;2022-09-17T16:20:51;16.80;90.00
15099;DHT22;33900;53.640;9.942;2022-09-17T16:23:17;16.80;90.00
15099;DHT22;33900;53.640;9.942;2022-09-17T16:25:42;16.80;90.00
15099;DHT22;33900;53.640;9.942;2022-09-17T16:28:09;16.70;90.00
15099;DHT22;33900;53.640;9.942;2022-09-17T16:30:35;16.70;90.00
15099;DHT22;33900;53.640;9.942;2022-09-17T16:33:01;16.70;90.00
15099;DHT22;33900;53.640;9.942;2022-09-17T16:35:28;16.70;90.00
15099;DHT22;33900;53.640;9.942;2022-09-17T16:37:54;16.70;90.00
15099;DHT22;33900;53.640;9.942;2022-09-17T16:40:20;16.70;90.00
15099;DHT22;33900;53.640;9.942;2022-09-17T16:42:46;16.70;90.10
15099;DHT22;33900;53.640;9.942;2022-09-17T16:45:12;16.70;90.00
15099;DHT22;33900;53.640;9.942;2022-09-17T16:47:38;16.70;90.00
15099;DHT22;33900;53.640;9.942;2022-09-17T16:50:12;16.60;90.00
15099;DHT22;33900;53.640;9.942;2022-09-17T16:52:38;16.60;90.10
15099;DHT22;33900;53.640;9.942;2022-09-17T16:55:04;16.60;90.00
15099;DHT22;33900;53.640;9.942;2022-09-17T16:57:30;16.60;90.00
15099;DHT22;33900;53.640;9.942;2022-09-17T16:59:56;16.60;90.10
15099;DHT22;33900;53.640;9.942;2022-09-17T17:02:22;16.50;90.10
15099;DHT22;33900;53.640;9.942;2022-09-17T17:04:47;16.60;90.10
15099;DHT22;33900;53.640;9.942;2022-09-17T17:07:13;16.50;90.00
15099;DHT22;33900;53.640;9.942;2022-09-17T17:09:38;16.50;90.10
15099;DHT22;33900;53.640;9.942;2022-09-17T17:12:04;16.50;90.00
15099;DHT22;33900;53.640;9.942;2022-09-17T17:14:30;16.40;90.00
15099;DHT22;33900;53.640;9.942;2022-09-17T17:16:55;16.50;90.00
15099;DHT22;33900;53.640;9.942;2022-09-17T17:19:21;16.40;89.90
15099;DHT22;33900;53.640;9.942;2022-09-17T17:21:50;16.40;90.00
15099;DHT22;33900;53.640;9.942;2022-09-17T17:24:17;16.40;90.00
15099;DHT22;33900;53.640;9.942;2022-09-17T17:26:42;16.30;89.80
15099;DHT22;33900;53.640;9.942;2022-09-17T17:29:08;16.30;89.90
15099;DHT22;33900;53.640;9.942;2022-09-17T17:31:34;16.30;90.00
15099;DHT22;33900;53.640;9.942;2022-09-17T17:34:00;16.30;90.10
15099;DHT22;33900;53.640;9.942;2022-09-17T17:36:25;16.20;90.10
15099;DHT22;33900;53.640;9.942;2022-09-17T17:38:57;16.20;90.20
15099;DHT22;33900;53.640;9.942;2022-09-17T17:41:23;16.20;90.20
15099;DHT22;33900;53.640;9.942;2022-09-17T17:43:54;16.20;90.30
15099;DHT22;33900;53.640;9.942;2022-09-17T17:46:20;16.20;90.40
15099;DHT22;33900;53.640;9.942;2022-09-17T17:48:47;16.10;90.40
15099;DHT22;33900;53.640;9.942;2022-09-17T17:51:13;16.10;90.50
15099;DHT22;33900;53.640;9.942;2022-09-17T17:53:42;16.10;90.50
15099;DHT22;33900;53.640;9.942;2022-09-17T17:56:08;16.10;90.50
15099;DHT22;33900;53.640;9.942;2022-09-17T17:58:33;16.10;90.50
15099;DHT22;33900;53.640;9.942;2022-09-17T18:00:59;16.10;90.60
15099;DHT22;33900;53.640;9.942;2022-09-17T18:03:25;16.10;90.50
15099;DHT22;33900;53.640;9.942;2022-09-17T18:05:51;16.00;90.50
15099;DHT22;33900;53.640;9.942;2022-09-17T18:08:17;16.00;90.50
15099;DHT22;33900;53.640;9.942;2022-09-17T18:10:50;16.00;90.50
15099;DHT22;33900;53.640;9.942;2022-09-17T18:13:16;16.00;90.50
15099;DHT22;33900;53.640;9.942;2022-09-17T18:15:48;15.90;90.50
15099;DHT22;33900;53.640;9.942;2022-09-17T18:18:14;15.90;90.50
15099;DHT22;33900;53.640;9.942;2022-09-17T18:20:39;15.90;90.50
15099;DHT22;33900;53.640;9.942;2022-09-17T18:23:05;15.90;90.60
15099;DHT22;33900;53.640;9.942;2022-09-17T18:25:31;15.80;90.60
15099;DHT22;33900;53.640;9.942;2022-09-17T18:27:56;15.80;90.60
15099;DHT22;33900;53.640;9.942;2022-09-17T18:30:22;15.80;90.60
15099;DHT22;33900;53.640;9.942;2022-09-17T18:32:47;15.80;90.70
15099;DHT22;33900;53.640;9.942;2022-09-17T18:35:13;15.80;90.70
15099;DHT22;33900;53.640;9.942;2022-09-17T18:43:55;15.80;90.80
15099;DHT22;33900;53.640;9.942;2022-09-17T18:46:21;15.80;90.80
15099;DHT22;33900;53.640;9.942;2022-09-17T18:48:56;15.70;90.80
15099;DHT22;33900;53.640;9.942;2022-09-17T18:54:50;15.70;90.80
15099;DHT22;33900;53.640;9.942;2022-09-17T18:57:16;15.70;90.80
15099;DHT22;33900;53.640;9.942;2022-09-17T18:59:41;15.60;90.80
15099;DHT22;33900;53.640;9.942;2022-09-17T19:02:08;15.60;91.20
15099;DHT22;33900;53.640;9.942;2022-09-17T19:04:35;15.60;90.90
15099;DHT22;33900;53.640;9.942;2022-09-17T19:07:01;15.60;90.90
15099;DHT22;33900;53.640;9.942;2022-09-17T19:09:26;15.60;91.00
15099;DHT22;33900;53.640;9.942;2022-09-17T19:11:52;15.60;91.10
15099;DHT22;33900;53.640;9.942;2022-09-17T19:14:17;15.60;91.10
15099;DHT22;33900;53.640;9.942;2022-09-17T19:16:43;15.60;91.10
15099;DHT22;33900;53.640;9.942;2022-09-17T19:19:08;15.60;91.10
15099;DHT22;33900;53.640;9.942;2022-09-17T19:21:34;15.60;91.20
15099;DHT22;33900;53.640;9.942;2022-09-17T19:24:00;15.60;91.20
15099;DHT22;33900;53.640;9.942;2022-09-17T19:26:27;15.60;91.20
15099;DHT22;33900;53.640;9.942;2022-09-17T19:28:53;15.60;91.20
15099;DHT22;33900;53.640;9.942;2022-09-17T19:31:19;15.60;91.20
15099;DHT22;33900;53.640;9.942;2022-09-17T19:33:45;15.60;91.30
15099;DHT22;33900;53.640;9.942;2022-09-17T19:36:12;15.60;91.30
15099;DHT22;33900;53.640;9.942;2022-09-17T19:38:38;15.60;91.30
15099;DHT22;33900;53.640;9.942;2022-09-17T19:41:05;15.60;91.40